sensor_id;sensor_type;location;lat;lon;timestamp;temperature;humidity
31379;DHT22;61664;48.112;11.662;2023-05-10T00:02:08;16.00;86.90
31379;DHT22;61664;48.112;11.662;2023-05-10T00:04:34;16.00;87.30
31379;DHT22;61664;48.112;11.662;2023-05-10T00:07:01;16.00;87.50
31379;DHT22;61664;48.112;11.662;2023-05-10T00:09:28;16.00;87.30
31379;DHT22;61664;48.112;11.662;2023-05-10T00:11:55;16.00;87.10
31379;DHT22;61664;48.112;11.662;2023-05-10T00:14:24;16.00;87.20
31379;DHT22;61664;48.112;11.662;2023-05-10T00:16:51;15.90;87.50
31379;DHT22;61664;48.112;11.662;2023-05-10T00:19:19;15.90;87.70
31379;DHT22;61664;48.112;11.662;2023-05-10T00:21:46;15.90;87.70
31379;DHT22;61664;48.112;11.662;2023-05-10T00:24:13;15.90;87.60
31379;DHT22;61664;48.112;11.662;2023-05-10T00:26:40;15.90;87.80
31379;DHT22;61664;48.112;11.662;2023-05-10T00:29:08;15.90;87.90
31379;DHT22;61664;48.112;11.662;2023-05-10T00:31:35;15.90;88.00
31379;DHT22;61664;48.112;11.662;2023-05-10T00:34:02;15.90;88.00
31379;DHT22;61664;48.112;11.662;2023-05-10T00:36:29;15.90;88.00
31379;DHT22;61664;48.112;11.662;2023-05-10T00:38:57;15.90;88.10
31379;DHT22;61664;48.112;11.662;2023-05-10T00:41:24;15.90;88.30
31379;DHT22;61664;48.112;11.662;2023-05-10T00:43:51;15.90;88.10
31379;DHT22;61664;48.112;11.662;2023-05-10T00:46:18;15.90;88.00
31379;DHT22;61664;48.112;11.662;2023-05-10T00:48:45;15.90;87.90
31379;DHT22;61664;48.112;11.662;2023-05-10T00:51:13;15.90;88.00
31379;DHT22;61664;48.112;11.662;2023-05-10T00:53:40;15.90;88.20
31379;DHT22;61664;48.112;11.662;2023-05-10T00:56:07;15.80;88.20
31379;DHT22;61664;48.112;11.662;2023-05-10T00:58:34;15.80;88.10
31379;DHT22;61664;48.112;11.662;2023-05-10T01:01:02;15.80;88.40
31379;DHT22;61664;48.112;11.662;2023-05-10T01:03:31;15.80;88.50
31379;DHT22;61664;48.112;11.662;2023-05-10T01:05:58;15.80;88.60
31379;DHT22;61664;48.112;11.662;2023-05-10T01:08:26;15.80;88.70
31379;DHT22;61664;48.112;11.662;2023-05-10T01:10:53;15.80;88.90
31379;DHT22;61664;48.112;11.662;2023-05-10T01:13:41;15.80;89.00
31379;DHT22;61664;48.112;11.662;2023-05-10T01:16:09;15.80;88.50
31379;DHT22;61664;48.112;11.662;2023-05-10T01:18:39;15.80;89.20
31379;DHT22;61664;48.112;11.662;2023-05-10T01:21:15;15.80;89.20
31379;DHT22;61664;48.112;11.662;2023-05-10T01:30:07;15.80;88.70
31379;DHT22;61664;48.112;11.662;2023-05-10T01:39:36;15.80;88.60
31379;DHT22;61664;48.112;11.662;2023-05-10T01:42:17;15.70;88.70
31379;DHT22;61664;48.112;11.662;2023-05-10T01:45:50;15.70;88.80
31379;DHT22;61664;48.112;11.662;2023-05-10T01:48:10;15.70;88.70
31379;DHT22;61664;48.112;11.662;2023-05-10T01:50:39;15.70;88.70
31379;DHT22;61664;48.112;11.662;2023-05-10T01:53:11;15.80;88.90
31379;DHT22;61664;48.112;11.662;2023-05-10T01:55:43;15.70;88.70
31379;DHT22;61664;48.112;11.662;2023-05-10T01:58:21;15.60;88.70
31379;DHT22;61664;48.112;11.662;2023-05-10T02:00:52;15.60;88.70
31379;DHT22;61664;48.112;11.662;2023-05-10T02:03:24;15.60;89.00
31379;DHT22;61664;48.112;11.662;2023-05-10T02:05:54;15.60;89.00
31379;DHT22;61664;48.112;11.662;2023-05-10T02:08:23;15.50;89.50
31379;DHT22;61664;48.112;11.662;2023-05-10T02:10:54;15.50;89.90
31379;DHT22;61664;48.112;11.662;2023-05-10T02:13:24;15.50;90.00
31379;DHT22;61664;48.112;11.662;2023-05-10T02:15:53;15.50;90.10
31379;DHT22;61664;48.112;11.662;2023-05-10T02:18:22;15.50;90.00
31379;DHT22;61664;48.112;11.662;2023-05-10T02:20:52;15.50;90.20
31379;DHT22;61664;48.112;11.662;2023-05-10T02:23:22;15.50;90.20
31379;DHT22;61664;48.112;11.662;2023-05-10T02:25:51;15.50;90.40
31379;DHT22;61664;48.112;11.662;2023-05-10T02:28:21;15.60;90.30
31379;DHT22;61664;48.112;11.662;2023-05-10T02:30:51;15.60;90.20
31379;DHT22;61664;48.112;11.662;2023-05-10T02:33:20;15.60;90.20
31379;DHT22;61664;48.112;11.662;2023-05-10T02:35:50;15.60;90.10
31379;DHT22;61664;48.112;11.662;2023-05-10T02:38:20;15.60;89.90
31379;DHT22;61664;48.112;11.662;2023-05-10T02:40:51;15.50;89.80
31379;DHT22;61664;48.112;11.662;2023-05-10T02:43:19;15.60;90.00
31379;DHT22;61664;48.112;11.662;2023-05-10T02:45:49;15.60;90.00
31379;DHT22;61664;48.112;11.662;2023-05-10T02:48:16;15.60;89.10
31379;DHT22;61664;48.112;11.662;2023-05-10T02:50:44;15.50;89.90
31379;DHT22;61664;48.112;11.662;2023-05-10T02:53:21;15.50;90.00
31379;DHT22;61664;48.112;11.662;2023-05-10T02:55:52;15.50;89.80
31379;DHT22;61664;48.112;11.662;2023-05-10T02:58:25;15.50;90.10
31379;DHT22;61664;48.112;11.662;2023-05-10T03:00:53;15.50;90.20
31379;DHT22;61664;48.112;11.662;2023-05-10T03:03:20;15.50;90.20
31379;DHT22;61664;48.112;11.662;2023-05-10T03:05:47;15.50;90.20
31379;DHT22;61664;48.112;11.662;2023-05-10T03:08:14;15.50;90.20
31379;DHT22;61664;48.112;11.662;2023-05-10T03:10:59;15.50;90.20
31379;DHT22;61664;48.112;11.662;2023-05-10T03:20:46;15.50;89.30
31379;DHT22;61664;48.112;11.662;2023-05-10T03:23:30;15.50;89.50
31379;DHT22;61664;48.112;11.662;2023-05-10T03:26:07;15.50;89.50
31379;DHT22;61664;48.112;11.662;2023-05-10T03:28:35;15.50;90.10
31379;DHT22;61664;48.112;11.662;2023-05-10T03:31:04;15.50;90.00
31379;DHT22;61664;48.112;11.662;2023-05-10T03:33:32;15.50;90.10
31379;DHT22;61664;48.112;11.662;2023-05-10T03:35:59;15.40;90.10
31379;DHT22;61664;48.112;11.662;2023-05-10T03:38:26;15.50;90.20
31379;DHT22;61664;48.112;11.662;2023-05-10T03:40:56;15.50;90.20
31379;DHT22;61664;48.112;11.662;2023-05-10T03:43:23;15.50;90.10
31379;DHT22;61664;48.112;11.662;2023-05-10T03:45:50;15.40;90.20
31379;DHT22;61664;48.112;11.662;2023-05-10T03:48:16;15.40;90.20
31379;DHT22;61664;48.112;11.662;2023-05-10T03:50:43;15.40;90.30
31379;DHT22;61664;48.112;11.662;2023-05-10T03:53:10;15.40;90.30
31379;DHT22;61664;48.112;11.662;2023-05-10T03:55:37;15.40;90.30
31379;DHT22;61664;48.112;11.662;2023-05-10T03:58:04;15.40;90.30
31379;DHT22;61664;48.112;11.662;2023-05-10T04:00:31;15.40;90.20
31379;DHT22;61664;48.112;11.662;2023-05-10T04:02:59;15.40;90.20
31379;DHT22;61664;48.112;11.662;2023-05-10T04:05:26;15.40;90.30
31379;DHT22;61664;48.112;11.662;2023-05-10T04:07:52;15.40;90.30
31379;DHT22;61664;48.112;11.662;2023-05-10T04:10:19;15.40;90.30
31379;DHT22;61664;48.112;11.662;2023-05-10T04:12:47;15.30;90.40
31379;DHT22;61664;48.112;11.662;2023-05-10T04:15:14;15.40;90.50
31379;DHT22;61664;48.112;11.662;2023-05-10T04:17:41;15.30;90.60
31379;DHT22;61664;48.112;11.662;2023-05-10T04:20:08;15.40;90.70
31379;DHT22;61664;48.112;11.662;2023-05-10T04:22:36;15.40;90.70
31379;DHT22;61664;48.112;11.662;2023-05-10T04:25:03;15.40;90.80
31379;DHT22;61664;48.112;11.662;2023-05-10T04:27:31;15.40;90.70
31379;DHT22;61664;48.112;11.662;2023-05-10T04:29:58;15.40;90.60
31379;DHT22;61664;48.112;11.662;2023-05-10T04:32:25;15.40;90.40
31379;DHT22;61664;48.112;11.662;2023-05-10T04:34:52;15.40;90.40
31379;DHT22;61664;48.112;11.662;2023-05-10T04:37:19;15.40;90.30
31379;DHT22;61664;48.112;11.662;2023-05-10T04:39:47;15.40;90.40
31379;DHT22;61664;48.112;11.662;2023-05-10T04:42:14;15.40;90.50
31379;DHT22;61664;48.112;11.662;2023-05-10T04:44:41;15.40;90.70
31379;DHT22;61664;48.112;11.662;2023-05-10T04:47:09;15.40;90.70
31379;DHT22;61664;48.112;11.662;2023-05-10T04:49:38;15.40;90.60
31379;DHT22;61664;48.112;11.662;2023-05-10T04:52:05;15.40;90.70
31379;DHT22;61664;48.112;11.662;2023-05-10T04:54:31;15.40;90.70
31379;DHT22;61664;48.112;11.662;2023-05-10T04:56:58;15.40;90.50
31379;DHT22;61664;48.112;11.662;2023-05-10T04:59:25;15.40;90.60
31379;DHT22;61664;48.112;11.662;2023-05-10T05:01:53;15.40;90.60
31379;DHT22;61664;48.112;11.662;2023-05-10T05:04:19;15.40;90.50
31379;DHT22;61664;48.112;11.662;2023-05-10T05:06:46;15.40;90.50
31379;DHT22;61664;48.112;11.662;2023-05-10T05:09:13;15.40;90.50
31379;DHT22;61664;48.112;11.662;2023-05-10T05:11:40;15.30;90.30
31379;DHT22;61664;48.112;11.662;2023-05-10T05:14:07;15.40;90.20
31379;DHT22;61664;48.112;11.662;2023-05-10T05:16:55;15.30;90.10
31379;DHT22;61664;48.112;11.662;2023-05-10T05:19:22;15.30;89.80
31379;DHT22;61664;48.112;11.662;2023-05-10T05:21:49;15.30;90.50
31379;DHT22;61664;48.112;11.662;2023-05-10T05:24:16;15.30;90.60
31379;DHT22;61664;48.112;11.662;2023-05-10T05:26:43;15.30;90.50
31379;DHT22;61664;48.112;11.662;2023-05-10T05:29:10;15.30;90.40
31379;DHT22;61664;48.112;11.662;2023-05-10T05:31:37;15.20;90.30
31379;DHT22;61664;48.112;11.662;2023-05-10T05:34:04;15.20;90.20
31379;DHT22;61664;48.112;11.662;2023-05-10T05:36:31;15.20;90.20
31379;DHT22;61664;48.112;11.662;2023-05-10T05:39:01;15.10;90.20
31379;DHT22;61664;48.112;11.662;2023-05-10T05:41:28;15.10;90.20
31379;DHT22;61664;48.112;11.662;2023-05-10T05:43:55;15.10;90.20
31379;DHT22;61664;48.112;11.662;2023-05-10T05:46:22;15.00;90.30
31379;DHT22;61664;48.112;11.662;2023-05-10T05:48:49;15.00;90.40
31379;DHT22;61664;48.112;11.662;2023-05-10T05:51:15;14.90;90.50
31379;DHT22;61664;48.112;11.662;2023-05-10T05:53:42;14.90;90.30
31379;DHT22;61664;48.112;11.662;2023-05-10T05:56:09;14.90;90.30
31379;DHT22;61664;48.112;11.662;2023-05-10T05:58:54;14.90;90.40
31379;DHT22;61664;48.112;11.662;2023-05-10T06:01:21;14.80;90.00
31379;DHT22;61664;48.112;11.662;2023-05-10T06:03:48;14.80;89.70
31379;DHT22;61664;48.112;11.662;2023-05-10T06:06:18;14.80;89.90
31379;DHT22;61664;48.112;11.662;2023-05-10T06:08:45;14.70;90.10
31379;DHT22;61664;48.112;11.662;2023-05-10T06:11:12;14.60;90.20
31379;DHT22;61664;48.112;11.662;2023-05-10T06:13:39;14.60;90.60
31379;DHT22;61664;48.112;11.662;2023-05-10T06:16:06;14.60;90.90
31379;DHT22;61664;48.112;11.662;2023-05-10T06:18:33;14.60;91.00
31379;DHT22;61664;48.112;11.662;2023-05-10T06:21:00;14.60;91.30
31379;DHT22;61664;48.112;11.662;2023-05-10T06:23:27;14.60;91.70
31379;DHT22;61664;48.112;11.662;2023-05-10T06:25:55;14.70;91.80
31379;DHT22;61664;48.112;11.662;2023-05-10T06:28:22;14.70;91.90
31379;DHT22;61664;48.112;11.662;2023-05-10T06:30:49;14.80;91.80
31379;DHT22;61664;48.112;11.662;2023-05-10T06:33:15;14.80;91.70
31379;DHT22;61664;48.112;11.662;2023-05-10T06:35:42;14.80;91.70
31379;DHT22;61664;48.112;11.662;2023-05-10T06:38:09;14.90;91.80
31379;DHT22;61664;48.112;11.662;2023-05-10T06:40:36;14.90;91.80
31379;DHT22;61664;48.112;11.662;2023-05-10T06:43:03;14.90;91.70
31379;DHT22;61664;48.112;11.662;2023-05-10T06:45:30;15.00;91.80
31379;DHT22;61664;48.112;11.662;2023-05-10T06:47:57;15.00;91.70
31379;DHT22;61664;48.112;11.662;2023-05-10T06:50:24;15.00;92.00
31379;DHT22;61664;48.112;11.662;2023-05-10T06:52:51;15.10;92.10
31379;DHT22;61664;48.112;11.662;2023-05-10T06:55:18;15.10;92.00
31379;DHT22;61664;48.112;11.662;2023-05-10T06:57:47;15.10;91.90
31379;DHT22;61664;48.112;11.662;2023-05-10T07:00:14;15.20;92.00
31379;DHT22;61664;48.112;11.662;2023-05-10T07:02:42;15.20;92.00
31379;DHT22;61664;48.112;11.662;2023-05-10T07:05:09;15.30;92.10
31379;DHT22;61664;48.112;11.662;2023-05-10T07:07:36;15.30;92.40
31379;DHT22;61664;48.112;11.662;2023-05-10T07:10:03;15.40;92.60
31379;DHT22;61664;48.112;11.662;2023-05-10T07:12:30;15.40;92.60
31379;DHT22;61664;48.112;11.662;2023-05-10T07:14:57;15.50;92.20
31379;DHT22;61664;48.112;11.662;2023-05-10T07:17:24;15.50;91.90
31379;DHT22;61664;48.112;11.662;2023-05-10T07:19:51;15.60;91.80
31379;DHT22;61664;48.112;11.662;2023-05-10T07:22:18;15.50;91.60
31379;DHT22;61664;48.112;11.662;2023-05-10T07:24:45;15.60;91.40
31379;DHT22;61664;48.112;11.662;2023-05-10T07:27:12;15.60;91.30
31379;DHT22;61664;48.112;11.662;2023-05-10T07:29:39;15.60;91.20
31379;DHT22;61664;48.112;11.662;2023-05-10T07:32:06;15.50;91.40
31379;DHT22;61664;48.112;11.662;2023-05-10T07:34:46;15.60;91.90
31379;DHT22;61664;48.112;11.662;2023-05-10T07:37:13;15.60;91.50
31379;DHT22;61664;48.112;11.662;2023-05-10T07:39:40;15.70;92.40
31379;DHT22;61664;48.112;11.662;2023-05-10T07:42:08;15.70;92.90
31379;DHT22;61664;48.112;11.662;2023-05-10T07:44:37;15.80;93.40
31379;DHT22;61664;48.112;11.662;2023-05-10T07:47:04;16.00;93.40
31379;DHT22;61664;48.112;11.662;2023-05-10T07:49:33;16.10;93.50
31379;DHT22;61664;48.112;11.662;2023-05-10T07:52:00;16.20;92.70
31379;DHT22;61664;48.112;11.662;2023-05-10T07:54:27;16.30;92.40
31379;DHT22;61664;48.112;11.662;2023-05-10T07:56:54;16.30;92.40
31379;DHT22;61664;48.112;11.662;2023-05-10T07:59:21;16.40;92.60
31379;DHT22;61664;48.112;11.662;2023-05-10T08:01:47;16.50;92.90
31379;DHT22;61664;48.112;11.662;2023-05-10T08:04:14;16.60;93.10
31379;DHT22;61664;48.112;11.662;2023-05-10T08:06:42;16.70;93.40
31379;DHT22;61664;48.112;11.662;2023-05-10T08:09:09;16.90;93.60
31379;DHT22;61664;48.112;11.662;2023-05-10T08:11:36;17.00;92.80
31379;DHT22;61664;48.112;11.662;2023-05-10T08:14:03;17.10;92.20
31379;DHT22;61664;48.112;11.662;2023-05-10T08:16:30;17.20;91.80
31379;DHT22;61664;48.112;11.662;2023-05-10T08:18:57;17.30;91.60
31379;DHT22;61664;48.112;11.662;2023-05-10T08:21:24;17.40;91.80
31379;DHT22;61664;48.112;11.662;2023-05-10T08:23:51;17.50;92.00
31379;DHT22;61664;48.112;11.662;2023-05-10T08:26:18;17.60;91.80
31379;DHT22;61664;48.112;11.662;2023-05-10T08:28:45;17.70;91.80
31379;DHT22;61664;48.112;11.662;2023-05-10T08:31:12;17.80;91.40
31379;DHT22;61664;48.112;11.662;2023-05-10T08:33:39;17.90;90.50
31379;DHT22;61664;48.112;11.662;2023-05-10T08:36:08;17.90;90.10
31379;DHT22;61664;48.112;11.662;2023-05-10T08:38:35;17.90;90.20
31379;DHT22;61664;48.112;11.662;2023-05-10T08:41:04;18.00;90.40
31379;DHT22;61664;48.112;11.662;2023-05-10T08:43:32;18.00;90.40
31379;DHT22;61664;48.112;11.662;2023-05-10T08:46:03;18.10;90.20
31379;DHT22;61664;48.112;11.662;2023-05-10T08:48:33;18.10;89.40
31379;DHT22;61664;48.112;11.662;2023-05-10T08:51:02;18.10;87.50
31379;DHT22;61664;48.112;11.662;2023-05-10T08:53:31;18.10;87.50
31379;DHT22;61664;48.112;11.662;2023-05-10T08:56:02;18.00;87.90
31379;DHT22;61664;48.112;11.662;2023-05-10T08:58:29;18.00;86.80
31379;DHT22;61664;48.112;11.662;2023-05-10T09:00:58;17.90;86.90
31379;DHT22;61664;48.112;11.662;2023-05-10T09:03:25;17.80;87.40
31379;DHT22;61664;48.112;11.662;2023-05-10T09:05:53;17.70;88.30
31379;DHT22;61664;48.112;11.662;2023-05-10T09:08:23;17.70;89.60
31379;DHT22;61664;48.112;11.662;2023-05-10T09:10:54;17.60;89.10
31379;DHT22;61664;48.112;11.662;2023-05-10T09:13:23;17.60;89.70
31379;DHT22;61664;48.112;11.662;2023-05-10T09:15:51;17.60;89.40
31379;DHT22;61664;48.112;11.662;2023-05-10T09:18:19;17.50;89.30
31379;DHT22;61664;48.112;11.662;2023-05-10T09:20:46;17.50;89.80
31379;DHT22;61664;48.112;11.662;2023-05-10T09:23:13;17.50;90.10
31379;DHT22;61664;48.112;11.662;2023-05-10T09:25:43;17.50;90.30
31379;DHT22;61664;48.112;11.662;2023-05-10T09:28:10;17.50;90.10
31379;DHT22;61664;48.112;11.662;2023-05-10T09:30:38;17.60;91.30
31379;DHT22;61664;48.112;11.662;2023-05-10T09:33:05;17.70;93.30
31379;DHT22;61664;48.112;11.662;2023-05-10T09:35:33;17.90;94.90
31379;DHT22;61664;48.112;11.662;2023-05-10T09:38:02;18.20;94.90
31379;DHT22;61664;48.112;11.662;2023-05-10T09:40:31;18.60;94.90
31379;DHT22;61664;48.112;11.662;2023-05-10T09:43:01;19.10;93.90
31379;DHT22;61664;48.112;11.662;2023-05-10T09:45:31;19.20;91.40
31379;DHT22;61664;48.112;11.662;2023-05-10T09:48:04;19.40;89.70
31379;DHT22;61664;48.112;11.662;2023-05-10T09:50:31;19.50;87.90
31379;DHT22;61664;48.112;11.662;2023-05-10T09:53:00;19.40;87.00
31379;DHT22;61664;48.112;11.662;2023-05-10T09:58:02;19.30;83.00
31379;DHT22;61664;48.112;11.662;2023-05-10T10:00:35;19.20;88.00
31379;DHT22;61664;48.112;11.662;2023-05-10T10:03:23;19.20;87.10
31379;DHT22;61664;48.112;11.662;2023-05-10T10:05:50;19.30;91.20
31379;DHT22;61664;48.112;11.662;2023-05-10T10:08:19;19.50;91.80
31379;DHT22;61664;48.112;11.662;2023-05-10T10:10:47;19.70;91.70
31379;DHT22;61664;48.112;11.662;2023-05-10T10:13:14;19.90;91.10
31379;DHT22;61664;48.112;11.662;2023-05-10T10:15:42;20.00;91.00
31379;DHT22;61664;48.112;11.662;2023-05-10T10:18:13;20.20;90.60
31379;DHT22;61664;48.112;11.662;2023-05-10T10:20:42;20.30;88.40
31379;DHT22;61664;48.112;11.662;2023-05-10T10:23:09;20.40;89.60
31379;DHT22;61664;48.112;11.662;2023-05-10T10:25:37;20.40;88.70
31379;DHT22;61664;48.112;11.662;2023-05-10T10:34:27;20.40;82.60
31379;DHT22;61664;48.112;11.662;2023-05-10T10:36:56;20.40;81.50
31379;DHT22;61664;48.112;11.662;2023-05-10T10:39:24;20.30;87.40
31379;DHT22;61664;48.112;11.662;2023-05-10T10:41:53;20.30;87.60
31379;DHT22;61664;48.112;11.662;2023-05-10T10:47:02;20.30;82.50
31379;DHT22;61664;48.112;11.662;2023-05-10T10:52:26;20.30;84.00
31379;DHT22;61664;48.112;11.662;2023-05-10T10:57:54;20.10;84.60
31379;DHT22;61664;48.112;11.662;2023-05-10T11:00:28;20.10;86.50
31379;DHT22;61664;48.112;11.662;2023-05-10T11:03:09;20.00;87.40
31379;DHT22;61664;48.112;11.662;2023-05-10T11:08:14;20.10;82.10
31379;DHT22;61664;48.112;11.662;2023-05-10T11:13:34;20.00;81.80
31379;DHT22;61664;48.112;11.662;2023-05-10T11:16:19;20.00;82.00
31379;DHT22;61664;48.112;11.662;2023-05-10T11:19:04;19.90;79.20
31379;DHT22;61664;48.112;11.662;2023-05-10T11:21:47;19.80;78.30
31379;DHT22;61664;48.112;11.662;2023-05-10T11:24:27;19.70;78.80
31379;DHT22;61664;48.112;11.662;2023-05-10T11:26:54;19.50;79.50
31379;DHT22;61664;48.112;11.662;2023-05-10T11:29:22;19.50;83.10
31379;DHT22;61664;48.112;11.662;2023-05-10T11:31:51;19.30;82.00
31379;DHT22;61664;48.112;11.662;2023-05-10T11:36:54;18.90;78.50
31379;DHT22;61664;48.112;11.662;2023-05-10T11:39:26;18.70;81.30
31379;DHT22;61664;48.112;11.662;2023-05-10T11:41:54;18.50;79.80
31379;DHT22;61664;48.112;11.662;2023-05-10T11:44:21;18.40;81.90
31379;DHT22;61664;48.112;11.662;2023-05-10T11:46:49;18.20;80.70
31379;DHT22;61664;48.112;11.662;2023-05-10T11:49:16;18.00;80.20
31379;DHT22;61664;48.112;11.662;2023-05-10T11:51:43;17.80;80.40
31379;DHT22;61664;48.112;11.662;2023-05-10T11:54:13;17.50;80.90
31379;DHT22;61664;48.112;11.662;2023-05-10T11:56:40;17.30;81.70
31379;DHT22;61664;48.112;11.662;2023-05-10T11:59:07;17.00;82.70
31379;DHT22;61664;48.112;11.662;2023-05-10T12:01:35;16.80;82.80
31379;DHT22;61664;48.112;11.662;2023-05-10T12:04:02;16.60;82.80
31379;DHT22;61664;48.112;11.662;2023-05-10T12:06:32;16.40;83.10
31379;DHT22;61664;48.112;11.662;2023-05-10T12:09:23;16.20;83.90
31379;DHT22;61664;48.112;11.662;2023-05-10T12:12:05;16.00;85.30
31379;DHT22;61664;48.112;11.662;2023-05-10T12:14:34;15.80;86.20
31379;DHT22;61664;48.112;11.662;2023-05-10T12:17:02;15.70;87.00
31379;DHT22;61664;48.112;11.662;2023-05-10T12:19:37;15.60;88.00
31379;DHT22;61664;48.112;11.662;2023-05-10T12:22:05;15.50;88.20
31379;DHT22;61664;48.112;11.662;2023-05-10T12:24:36;15.40;89.30
31379;DHT22;61664;48.112;11.662;2023-05-10T12:27:05;15.40;88.60
31379;DHT22;61664;48.112;11.662;2023-05-10T12:29:34;15.40;89.00
31379;DHT22;61664;48.112;11.662;2023-05-10T12:32:02;15.30;89.10
31379;DHT22;61664;48.112;11.662;2023-05-10T12:34:35;15.30;89.40
31379;DHT22;61664;48.112;11.662;2023-05-10T12:37:03;15.20;88.90
31379;DHT22;61664;48.112;11.662;2023-05-10T12:39:44;15.20;90.00
31379;DHT22;61664;48.112;11.662;2023-05-10T12:42:12;15.10;88.50
31379;DHT22;61664;48.112;11.662;2023-05-10T12:44:39;15.10;90.00
31379;DHT22;61664;48.112;11.662;2023-05-10T12:47:06;15.10;90.20
31379;DHT22;61664;48.112;11.662;2023-05-10T12:49:34;15.10;90.30
31379;DHT22;61664;48.112;11.662;2023-05-10T12:52:01;15.00;90.40
31379;DHT22;61664;48.112;11.662;2023-05-10T12:54:28;15.00;90.50
31379;DHT22;61664;48.112;11.662;2023-05-10T12:56:54;15.00;90.70
31379;DHT22;61664;48.112;11.662;2023-05-10T12:59:21;15.00;90.80
31379;DHT22;61664;48.112;11.662;2023-05-10T13:01:49;15.00;90.80
31379;DHT22;61664;48.112;11.662;2023-05-10T13:04:16;15.00;90.90
31379;DHT22;61664;48.112;11.662;2023-05-10T13:06:43;15.00;90.80
31379;DHT22;61664;48.112;11.662;2023-05-10T13:09:10;15.00;90.80
31379;DHT22;61664;48.112;11.662;2023-05-10T13:11:37;15.00;90.90
31379;DHT22;61664;48.112;11.662;2023-05-10T13:14:04;15.00;90.90
31379;DHT22;61664;48.112;11.662;2023-05-10T13:16:31;15.00;91.00
31379;DHT22;61664;48.112;11.662;2023-05-10T13:18:58;15.10;91.00
31379;DHT22;61664;48.112;11.662;2023-05-10T13:21:25;15.10;90.90
31379;DHT22;61664;48.112;11.662;2023-05-10T13:23:53;15.10;91.10
31379;DHT22;61664;48.112;11.662;2023-05-10T13:26:20;15.10;91.20
31379;DHT22;61664;48.112;11.662;2023-05-10T13:28:47;15.10;91.40
31379;DHT22;61664;48.112;11.662;2023-05-10T13:31:16;15.10;91.50
31379;DHT22;61664;48.112;11.662;2023-05-10T13:33:43;15.20;91.40
31379;DHT22;61664;48.112;11.662;2023-05-10T13:36:09;15.20;91.40
31379;DHT22;61664;48.112;11.662;2023-05-10T13:38:36;15.20;91.30
31379;DHT22;61664;48.112;11.662;2023-05-10T13:41:04;15.20;91.50
31379;DHT22;61664;48.112;11.662;2023-05-10T13:43:31;15.30;91.70
31379;DHT22;61664;48.112;11.662;2023-05-10T13:45:58;15.30;91.90
31379;DHT22;61664;48.112;11.662;2023-05-10T13:48:26;15.30;91.50
31379;DHT22;61664;48.112;11.662;2023-05-10T13:50:53;15.30;91.20
31379;DHT22;61664;48.112;11.662;2023-05-10T13:53:22;15.30;91.00
31379;DHT22;61664;48.112;11.662;2023-05-10T13:55:50;15.30;91.10
31379;DHT22;61664;48.112;11.662;2023-05-10T13:58:17;15.30;91.10
31379;DHT22;61664;48.112;11.662;2023-05-10T14:00:56;15.30;90.90
31379;DHT22;61664;48.112;11.662;2023-05-10T14:03:22;15.30;90.20
31379;DHT22;61664;48.112;11.662;2023-05-10T14:05:49;15.30;90.70
31379;DHT22;61664;48.112;11.662;2023-05-10T14:08:16;15.30;90.70
31379;DHT22;61664;48.112;11.662;2023-05-10T14:10:46;15.30;91.00
31379;DHT22;61664;48.112;11.662;2023-05-10T14:13:13;15.30;91.20
31379;DHT22;61664;48.112;11.662;2023-05-10T14:15:40;15.30;91.40
31379;DHT22;61664;48.112;11.662;2023-05-10T14:18:07;15.30;91.00
31379;DHT22;61664;48.112;11.662;2023-05-10T14:20:34;15.30;90.90
31379;DHT22;61664;48.112;11.662;2023-05-10T14:23:01;15.30;90.80
31379;DHT22;61664;48.112;11.662;2023-05-10T14:25:28;15.30;90.70
31379;DHT22;61664;48.112;11.662;2023-05-10T14:27:55;15.30;90.60
31379;DHT22;61664;48.112;11.662;2023-05-10T14:30:21;15.30;90.70
31379;DHT22;61664;48.112;11.662;2023-05-10T14:32:48;15.30;90.90
31379;DHT22;61664;48.112;11.662;2023-05-10T14:35:15;15.20;91.00
31379;DHT22;61664;48.112;11.662;2023-05-10T14:37:45;15.30;91.20
31379;DHT22;61664;48.112;11.662;2023-05-10T14:40:12;15.30;91.30
31379;DHT22;61664;48.112;11.662;2023-05-10T14:42:41;15.30;91.20
31379;DHT22;61664;48.112;11.662;2023-05-10T14:45:09;15.30;91.40
31379;DHT22;61664;48.112;11.662;2023-05-10T14:47:37;15.30;91.40
31379;DHT22;61664;48.112;11.662;2023-05-10T14:50:06;15.30;91.10
31379;DHT22;61664;48.112;11.662;2023-05-10T14:52:33;15.30;90.90
31379;DHT22;61664;48.112;11.662;2023-05-10T14:55:00;15.30;90.80
31379;DHT22;61664;48.112;11.662;2023-05-10T14:57:27;15.30;90.70
31379;DHT22;61664;48.112;11.662;2023-05-10T14:59:56;15.30;90.50
31379;DHT22;61664;48.112;11.662;2023-05-10T15:02:23;15.30;90.50
31379;DHT22;61664;48.112;11.662;2023-05-10T15:04:51;15.20;90.40
31379;DHT22;61664;48.112;11.662;2023-05-10T15:07:18;15.20;90.00
31379;DHT22;61664;48.112;11.662;2023-05-10T15:09:45;15.10;90.10
31379;DHT22;61664;48.112;11.662;2023-05-10T15:12:12;15.10;90.30
31379;DHT22;61664;48.112;11.662;2023-05-10T15:14:39;15.10;90.50
31379;DHT22;61664;48.112;11.662;2023-05-10T15:17:06;15.00;90.50
31379;DHT22;61664;48.112;11.662;2023-05-10T15:19:34;15.00;90.40
31379;DHT22;61664;48.112;11.662;2023-05-10T15:22:01;15.00;90.30
31379;DHT22;61664;48.112;11.662;2023-05-10T15:24:28;15.00;90.20
31379;DHT22;61664;48.112;11.662;2023-05-10T15:26:55;14.90;90.30
31379;DHT22;61664;48.112;11.662;2023-05-10T15:29:22;14.90;90.30
31379;DHT22;61664;48.112;11.662;2023-05-10T15:31:50;14.80;90.20
31379;DHT22;61664;48.112;11.662;2023-05-10T15:34:18;14.70;90.40
31379;DHT22;61664;48.112;11.662;2023-05-10T15:36:45;14.80;90.50
31379;DHT22;61664;48.112;11.662;2023-05-10T15:39:12;14.70;90.60
31379;DHT22;61664;48.112;11.662;2023-05-10T15:41:39;14.70;90.80
31379;DHT22;61664;48.112;11.662;2023-05-10T15:44:06;14.70;90.80
31379;DHT22;61664;48.112;11.662;2023-05-10T15:46:33;14.70;90.70
31379;DHT22;61664;48.112;11.662;2023-05-10T15:49:00;14.60;90.70
31379;DHT22;61664;48.112;11.662;2023-05-10T15:51:27;14.60;90.80
31379;DHT22;61664;48.112;11.662;2023-05-10T15:53:54;14.60;90.90
31379;DHT22;61664;48.112;11.662;2023-05-10T15:56:32;14.50;90.70
31379;DHT22;61664;48.112;11.662;2023-05-10T15:59:00;14.50;90.70
31379;DHT22;61664;48.112;11.662;2023-05-10T16:01:27;14.50;90.60
31379;DHT22;61664;48.112;11.662;2023-05-10T16:03:55;14.50;90.50
31379;DHT22;61664;48.112;11.662;2023-05-10T16:06:22;14.50;90.40
31379;DHT22;61664;48.112;11.662;2023-05-10T16:08:48;14.40;90.40
31379;DHT22;61664;48.112;11.662;2023-05-10T16:11:15;14.40;90.40